Time;durP1;ratioP1;P1;durP2;ratioP2;P2;SDS_P1;SDS_P2;PMS_P1;PMS_P2;Temp;Humidity;BMP_temperature;BMP_pressure;BME280_temperature;BME280_humidity;BME280_pressure;Samples;Min_cycle;Max_cycle;Signal;HPM_P1;HPM_P2
2022/03/03 05:16:57;;;;;;;;;;;;;;;5.14;85.27;98466.09;4811178;29;20384;-65
2022/03/03 05:19:25;;;;;;;;;;;;;;;5.23;84.14;98457.63;4813202;29;19958;-65
2022/03/03 05:21:52;;;;;;;;;;;;;;;5.18;83.19;98460.66;4812947;29;19954;-65
2022/03/03 05:24:19;;;;;;;;;;;;;;;5.09;83.96;98457.25;4807499;29;19965;-65
2022/03/03 05:26:47;;;;;;;;;;;;;;;5.10;84.63;98459.69;4810757;29;19959;-65
2022/03/03 05:29:14;;;;;;;;;;;;;;;5.06;85.10;98458.78;4812930;29;19953;-65
2022/03/03 05:31:41;;;;;;;;;;;;;;;5.10;82.70;98451.38;4813281;29;20258;-66
2022/03/03 05:34:09;;;;;;;;;;;;;;;5.11;82.96;98452.97;4812473;29;19949;-66
2022/03/03 05:36:38;;;;;;;;;;;;;;;5.08;84.32;98447.34;4812547;29;19964;-66
2022/03/03 05:39:05;;;;;;;;;;;;;;;5.02;85.25;98449.56;4812838;29;19954;-65
2022/03/03 05:41:34;;;;;;;;;;;;;;;4.94;85.88;98447.78;4813390;29;20334;-65
2022/03/03 05:44:01;;;;;;;;;;;;;;;4.88;85.00;98453.94;4815383;29;20244;-66
2022/03/03 05:46:28;;;;;;;;;;;;;;;4.88;83.97;98449.22;4812680;29;19962;-65
2022/03/03 05:48:56;;;;;;;;;;;;;;;4.87;84.33;98461.44;4813085;29;20329;-65
2022/03/03 05:51:23;;;;;;;;;;;;;;;4.91;84.17;98453.25;4812468;29;20397;-65
2022/03/03 05:53:50;;;;;;;;;;;;;;;4.98;84.68;98464.50;4811840;29;19964;-65
2022/03/03 05:56:18;;;;;;;;;;;;;;;5.00;82.79;98463.00;4812828;29;19961;-65
2022/03/03 05:58:47;;;;;;;;;;;;;;;4.96;83.14;98459.34;4812682;29;19971;-65
2022/03/03 06:01:15;;;;;;;;;;;;;;;4.91;84.03;98461.56;4812554;29;19953;-65
2022/03/03 06:03:45;;;;;;;;;;;;;;;4.90;84.08;98455.19;4812432;29;19961;-66
2022/03/03 06:06:15;;;;;;;;;;;;;;;4.92;84.17;98455.66;4812607;29;19950;-66
2022/03/03 06:08:56;;;;;;;;;;;;;;;4.99;82.22;98458.59;4812545;29;19958;-66
2022/03/03 06:11:25;;;;;;;;;;;;;;;5.03;83.25;98465.06;4808881;29;20238;-65
2022/03/03 06:13:53;;;;;;;;;;;;;;;5.02;83.16;98466.19;4810457;29;20333;-66
2022/03/03 06:16:20;;;;;;;;;;;;;;;5.09;83.69;98463.59;4811490;29;19994;-65
2022/03/03 06:18:49;;;;;;;;;;;;;;;5.12;82.47;98473.97;4808360;29;19962;-65
2022/03/03 06:21:17;;;;;;;;;;;;;;;5.19;81.30;98465.84;4808192;29;19953;-65
2022/03/03 06:23:45;;;;;;;;;;;;;;;5.16;82.31;98469.31;4819313;29;19953;-65
2022/03/03 06:26:15;;;;;;;;;;;;;;;5.26;80.41;98456.88;4809273;29;19955;-65
2022/03/03 06:28:42;;;;;;;;;;;;;;;5.27;81.84;98464.88;4811682;29;19955;-65
2022/03/03 06:31:12;;;;;;;;;;;;;;;5.40;81.38;98471.13;4811929;29;20712;-64
2022/03/03 06:33:40;;;;;;;;;;;;;;;5.54;80.68;98474.22;4812176;29;20341;-65
2022/03/03 06:36:08;;;;;;;;;;;;;;;5.67;81.86;98478.47;4812118;29;19956;-65
2022/03/03 06:38:35;;;;;;;;;;;;;;;5.93;80.31;98477.91;4811459;29;19965;-65
2022/03/03 06:41:05;;;;;;;;;;;;;;;6.18;78.35;98472.91;4814839;29;19964;-66
2022/03/03 06:43:34;;;;;;;;;;;;;;;6.27;77.37;98474.28;4806371;29;19963;-65
2022/03/03 06:46:02;;;;;;;;;;;;;;;6.40;76.19;98472.97;4802873;29;20253;-65
2022/03/03 06:48:30;;;;;;;;;;;;;;;6.60;74.66;98476.53;4807682;29;19959;-66
2022/03/03 06:51:01;;;;;;;;;;;;;;;6.81;72.91;98482.50;4806023;29;19977;-66
2022/03/03 06:53:29;;;;;;;;;;;;;;;7.11;71.95;98485.44;4807668;29;19952;-65
2022/03/03 06:56:10;;;;;;;;;;;;;;;7.57;69.71;98488.97;4807289;29;19962;-65
2022/03/03 06:58:37;;;;;;;;;;;;;;;8.40;65.34;98488.63;4809964;29;19948;-66
2022/03/03 07:01:09;;;;;;;;;;;;;;;9.63;59.31;98500.28;4810084;29;20040;-66
2022/03/03 07:03:37;;;;;;;;;;;;;;;11.29;52.96;98500.28;4810698;29;19959;-66
2022/03/03 07:06:04;;;;;;;;;;;;;;;12.93;45.31;98501.25;4810285;29;20218;-66
2022/03/03 07:08:32;;;;;;;;;;;;;;;14.59;39.65;98491.47;4806756;29;20351;-65
2022/03/03 07:11:00;;;;;;;;;;;;;;;16.15;37.35;98496.41;4808635;29;19977;-66
2022/03/03 07:13:28;;;;;;;;;;;;;;;17.65;33.72;98498.59;4810037;29;19953;-66
2022/03/03 07:16:09;;;;;;;;;;;;;;;18.88;31.37;98512.34;4828501;29;19972;-67
2022/03/03 07:18:40;;;;;;;;;;;;;;;20.89;28.77;98502.94;4828091;29;19955;-66
2022/03/03 07:21:16;;;;;;;;;;;;;;;22.59;26.90;98502.63;4808244;29;19947;-66
2022/03/03 07:23:53;;;;;;;;;;;;;;;24.10;25.24;98508.25;4808594;29;19949;-66
2022/03/03 07:26:20;;;;;;;;;;;;;;;24.72;23.85;98508.31;4809998;29;19958;-67
2022/03/03 07:28:50;;;;;;;;;;;;;;;25.76;22.39;98513.72;4810190;29;19945;-67
2022/03/03 07:31:20;;;;;;;;;;;;;;;27.03;21.06;98524.22;4810022;29;20390;-67
2022/03/03 07:33:53;;;;;;;;;;;;;;;27.53;20.02;98530.53;4810750;29;19955;-67
2022/03/03 07:36:24;;;;;;;;;;;;;;;28.62;19.21;98529.09;4810212;29;19977;-67
2022/03/03 07:38:57;;;;;;;;;;;;;;;29.32;18.33;98528.34;4808943;29;19955;-68
2022/03/03 07:41:25;;;;;;;;;;;;;;;29.21;17.82;98531.19;4808893;29;20650;-67
2022/03/03 07:43:53;;;;;;;;;;;;;;;28.63;18.42;98530.66;4809946;29;19948;-67
2022/03/03 07:46:21;;;;;;;;;;;;;;;26.64;19.94;98528.63;4810093;29;19953;-67
2022/03/03 07:48:51;;;;;;;;;;;;;;;24.71;21.76;98518.97;4809493;29;19975;-67
2022/03/03 07:51:18;;;;;;;;;;;;;;;22.82;24.06;98519.13;4809105;29;19969;-67
2022/03/03 07:53:46;;;;;;;;;;;;;;;22.06;24.85;98518.31;4809983;29;20345;-67
2022/03/03 07:56:19;;;;;;;;;;;;;;;21.13;26.29;98526.03;4809350;29;19959;-67
2022/03/03 07:58:47;;;;;;;;;;;;;;;20.07;27.06;98521.25;4808907;29;19956;-66
2022/03/03 08:01:18;;;;;;;;;;;;;;;19.26;28.40;98526.63;4809382;29;19949;-66
2022/03/03 08:03:46;;;;;;;;;;;;;;;18.37;29.36;98533.94;4809942;29;20366;-66
2022/03/03 08:06:15;;;;;;;;;;;;;;;17.74;30.90;98532.69;4809751;29;19948;-67
2022/03/03 08:08:43;;;;;;;;;;;;;;;17.52;32.25;98531.59;4808063;29;19961;-67
2022/03/03 08:11:11;;;;;;;;;;;;;;;17.24;32.43;98524.50;4809053;29;19982;-67
2022/03/03 08:13:38;;;;;;;;;;;;;;;16.54;33.75;98525.97;4810058;29;19958;-67
2022/03/03 08:16:06;;;;;;;;;;;;;;;16.38;35.14;98524.59;4816125;29;19977;-67
2022/03/03 08:18:37;;;;;;;;;;;;;;;16.42;35.55;98521.72;4808276;29;19953;-66
2022/03/03 08:21:10;;;;;;;;;;;;;;;16.52;34.60;98525.59;4809604;29;20341;-65
2022/03/03 08:23:49;;;;;;;;;;;;;;;16.56;33.97;98523.50;4805669;29;19961;-65
2022/03/03 08:26:17;;;;;;;;;;;;;;;16.36;34.02;98518.59;4807677;29;19956;-66
2022/03/03 08:28:45;;;;;;;;;;;;;;;16.15;34.92;98521.00;4808125;29;20338;-66
2022/03/03 08:31:15;;;;;;;;;;;;;;;15.88;34.91;98512.59;4808011;29;19972;-66
2022/03/03 08:33:48;;;;;;;;;;;;;;;15.32;35.65;98516.25;4808817;29;20029;-66
2022/03/03 08:36:30;;;;;;;;;;;;;;;15.26;35.56;98510.28;4806703;29;19948;-66
2022/03/03 08:39:01;;;;;;;;;;;;;;;15.29;35.49;98503.81;4788295;30;19954;-66
2022/03/03 08:41:31;;;;;;;;;;;;;;;15.10;35.58;98507.31;4791557;30;19959;-66
2022/03/03 08:44:01;;;;;;;;;;;;;;;15.12;35.72;98504.84;4789962;30;19953;-66
2022/03/03 08:46:31;;;;;;;;;;;;;;;15.07;35.45;98508.94;4791210;30;19954;-66
2022/03/03 08:48:59;;;;;;;;;;;;;;;14.76;35.74;98515.78;4790684;30;19947;-66
2022/03/03 08:51:27;;;;;;;;;;;;;;;14.58;36.45;98517.19;4790303;30;19970;-66
2022/03/03 08:53:54;;;;;;;;;;;;;;;14.58;36.40;98509.56;4790191;30;19950;-66
2022/03/03 08:56:25;;;;;;;;;;;;;;;14.61;36.70;98517.16;4802962;29;19960;-66
2022/03/03 08:58:53;;;;;;;;;;;;;;;14.37;36.92;98515.44;4808410;29;20357;-66
2022/03/03 09:01:21;;;;;;;;;;;;;;;14.42;36.77;98504.53;4809387;29;19956;-66
2022/03/03 09:03:48;;;;;;;;;;;;;;;14.35;38.05;98506.63;4808620;29;19948;-66
2022/03/03 09:06:16;;;;;;;;;;;;;;;14.42;36.55;98512.97;4808345;29;19948;-66
2022/03/03 09:08:44;;;;;;;;;;;;;;;14.33;35.62;98514.66;4808192;29;19949;-66
2022/03/03 09:11:11;;;;;;;;;;;;;;;13.95;36.51;98512.97;4808508;29;19970;-66
2022/03/03 09:13:38;;;;;;;;;;;;;;;13.71;37.04;98504.38;4808971;29;20248;-66
2022/03/03 09:16:06;;;;;;;;;;;;;;;13.57;37.88;98504.44;4808134;29;19976;-66
2022/03/03 09:18:34;;;;;;;;;;;;;;;13.75;37.97;98499.50;4807860;29;19958;-66
2022/03/03 09:21:02;;;;;;;;;;;;;;;13.54;38.88;98496.88;4791769;29;19957;-66
2022/03/03 09:23:29;;;;;;;;;;;;;;;13.51;40.61;98492.06;4810988;29;19984;-66
2022/03/03 09:25:56;;;;;;;;;;;;;;;13.27;38.99;98495.84;4825788;29;20231;-66
2022/03/03 09:28:24;;;;;;;;;;;;;;;13.31;40.09;98485.38;4809694;29;19957;-66
2022/03/03 09:30:51;;;;;;;;;;;;;;;13.17;37.86;98491.09;4808028;29;19962;-66
2022/03/03 09:33:18;;;;;;;;;;;;;;;13.15;36.79;98485.88;4797810;29;19947;-66
2022/03/03 09:35:46;;;;;;;;;;;;;;;13.23;35.37;98477.44;4792823;29;19952;-66
2022/03/03 09:38:13;;;;;;;;;;;;;;;12.98;35.90;98480.34;4804234;29;19953;-66
2022/03/03 09:40:41;;;;;;;;;;;;;;;13.33;35.42;98490.56;4808116;29;19945;-66
2022/03/03 09:43:08;;;;;;;;;;;;;;;13.24;36.02;98479.00;4804411;29;19950;-66
2022/03/03 09:45:37;;;;;;;;;;;;;;;13.38;35.44;98470.47;4808888;29;19956;-66
2022/03/03 09:48:06;;;;;;;;;;;;;;;13.58;36.57;98468.72;4802782;29;19956;-66
2022/03/03 09:50:35;;;;;;;;;;;;;;;13.65;37.00;98463.84;4800602;29;19984;-66
2022/03/03 09:53:07;;;;;;;;;;;;;;;13.69;36.60;98464.59;4810508;29;19979;-66
2022/03/03 09:55:35;;;;;;;;;;;;;;;13.54;35.89;98460.34;4810303;29;19953;-66
2022/03/03 09:58:03;;;;;;;;;;;;;;;13.52;36.15;98459.94;4801169;29;19964;-66
2022/03/03 10:00:33;;;;;;;;;;;;;;;13.20;35.67;98464.22;4799626;29;19959;-66
2022/03/03 10:03:08;;;;;;;;;;;;;;;13.07;36.48;98461.88;4805019;29;19956;-66
2022/03/03 10:05:47;;;;;;;;;;;;;;;13.32;36.78;98455.28;4792397;30;19952;-66
2022/03/03 10:08:15;;;;;;;;;;;;;;;13.39;36.53;98450.44;4792415;30;19960;-65
2022/03/03 10:10:50;;;;;;;;;;;;;;;13.33;36.29;98452.06;4791915;30;20251;-66
2022/03/03 10:13:18;;;;;;;;;;;;;;;12.74;37.96;98444.81;4792679;30;19975;-66
2022/03/03 10:15:51;;;;;;;;;;;;;;;12.84;38.05;98441.91;4730297;29;1942559;-66
2022/03/03 10:18:19;;;;;;;;;;;;;;;12.83;37.71;98437.53;4811101;29;20353;-66
2022/03/03 10:20:49;;;;;;;;;;;;;;;12.83;38.27;98429.13;4810667;29;19951;-66
2022/03/03 10:23:18;;;;;;;;;;;;;;;12.83;39.55;98439.53;4810906;29;19954;-66
2022/03/03 10:25:46;;;;;;;;;;;;;;;12.91;38.39;98430.66;4811163;29;19946;-66
2022/03/03 10:28:19;;;;;;;;;;;;;;;12.53;38.91;98434.47;4811182;29;20261;-66
2022/03/03 10:30:47;;;;;;;;;;;;;;;12.86;38.38;98430.31;4810801;29;19955;-66
2022/03/03 10:33:15;;;;;;;;;;;;;;;12.86;39.46;98424.69;4811424;29;20293;-66
2022/03/03 10:35:56;;;;;;;;;;;;;;;12.93;39.67;98428.25;4809736;29;19956;-66
2022/03/03 10:38:23;;;;;;;;;;;;;;;13.05;39.63;98422.16;4804629;29;20251;-66
2022/03/03 10:40:51;;;;;;;;;;;;;;;13.10;39.45;98423.75;4792829;30;19947;-66
2022/03/03 10:43:18;;;;;;;;;;;;;;;12.96;39.49;98421.03;4810093;29;20374;-66
2022/03/03 10:45:56;;;;;;;;;;;;;;;13.10;39.05;98429.38;4811440;29;19948;-66
2022/03/03 10:48:26;;;;;;;;;;;;;;;13.13;38.92;98425.75;4810620;29;19954;-66
2022/03/03 10:50:55;;;;;;;;;;;;;;;12.83;40.80;98426.31;4810734;29;20010;-66
2022/03/03 10:53:23;;;;;;;;;;;;;;;13.02;40.18;98422.16;4809354;29;19976;-66
2022/03/03 10:56:00;;;;;;;;;;;;;;;12.97;42.64;98420.59;4809293;29;20260;-66
2022/03/03 10:58:43;;;;;;;;;;;;;;;12.90;40.20;98417.03;4810130;29;19951;-66
2022/03/03 11:01:10;;;;;;;;;;;;;;;13.05;47.13;98407.31;4794964;29;19963;-66
2022/03/03 11:03:39;;;;;;;;;;;;;;;12.67;42.14;98411.16;4805964;29;19950;-66
2022/03/03 11:06:06;;;;;;;;;;;;;;;12.91;42.70;98407.44;4792792;30;19956;-66
2022/03/03 11:08:35;;;;;;;;;;;;;;;12.74;41.47;98405.53;4776838;30;20426;-66
2022/03/03 11:11:03;;;;;;;;;;;;;;;12.40;41.59;98400.47;4792181;30;19952;-66
2022/03/03 11:13:30;;;;;;;;;;;;;;;12.07;41.52;98397.41;4792799;30;19966;-66
2022/03/03 11:15:58;;;;;;;;;;;;;;;12.60;42.64;98391.56;4793725;29;19976;-66
2022/03/03 11:18:25;;;;;;;;;;;;;;;12.41;43.26;98381.66;4809629;29;19955;-66
2022/03/03 11:20:53;;;;;;;;;;;;;;;12.61;43.43;98379.94;4806310;29;19958;-66
2022/03/03 11:23:21;;;;;;;;;;;;;;;12.56;43.08;98371.16;4812477;29;19950;-66
2022/03/03 11:25:51;;;;;;;;;;;;;;;12.39;41.75;98372.84;4794804;29;19948;-66
2022/03/03 11:28:19;;;;;;;;;;;;;;;12.46;41.32;98376.41;4809508;29;19967;-66
2022/03/03 11:30:47;;;;;;;;;;;;;;;12.42;42.07;98367.19;4809842;29;19965;-66
2022/03/03 11:33:21;;;;;;;;;;;;;;;12.10;42.12;98358.16;4809977;29;19980;-66
2022/03/03 11:35:50;;;;;;;;;;;;;;;12.60;40.78;98353.09;4809893;29;19959;-66
2022/03/03 11:38:18;;;;;;;;;;;;;;;12.20;40.53;98348.88;4809676;29;19957;-66
2022/03/03 11:40:51;;;;;;;;;;;;;;;12.10;41.25;98346.94;4810164;29;20364;-66
2022/03/03 11:43:18;;;;;;;;;;;;;;;12.22;40.47;98340.09;4808963;29;19951;-66
2022/03/03 11:45:52;;;;;;;;;;;;;;;11.86;42.37;98336.59;4809847;29;20341;-66
2022/03/03 11:48:20;;;;;;;;;;;;;;;12.18;41.68;98320.47;4809900;29;19953;-66
2022/03/03 11:50:48;;;;;;;;;;;;;;;12.29;42.01;98318.41;4809984;29;19958;-66
2022/03/03 11:53:18;;;;;;;;;;;;;;;12.36;42.81;98312.75;4809580;29;19979;-66
2022/03/03 11:56:00;;;;;;;;;;;;;;;12.48;41.84;98300.28;4810039;29;20245;-66
2022/03/03 11:58:28;;;;;;;;;;;;;;;12.32;42.21;98303.56;4809360;29;19955;-66
2022/03/03 12:00:59;;;;;;;;;;;;;;;12.35;42.16;98297.13;4809186;29;19954;-66
2022/03/03 12:03:27;;;;;;;;;;;;;;;12.18;42.75;98302.84;4809994;29;19954;-66
2022/03/03 12:06:11;;;;;;;;;;;;;;;12.30;45.54;98294.75;4809844;29;19959;-66
2022/03/03 12:08:39;;;;;;;;;;;;;;;12.45;41.86;98282.25;4808001;29;19953;-66
2022/03/03 12:11:07;;;;;;;;;;;;;;;12.42;41.88;98277.47;4810161;29;19958;-66
2022/03/03 12:13:42;;;;;;;;;;;;;;;12.48;41.35;98275.81;4809810;29;20350;-66
2022/03/03 12:16:14;;;;;;;;;;;;;;;12.39;40.53;98258.69;4809973;29;20099;-66
2022/03/03 12:18:42;;;;;;;;;;;;;;;12.49;40.78;98265.41;4809270;29;19952;-66
2022/03/03 12:21:28;;;;;;;;;;;;;;;12.32;41.86;98252.31;4808379;29;19953;-66
2022/03/03 12:24:32;;;;;;;;;;;;;;;12.56;42.09;98245.72;4809221;29;19946;-66
2022/03/03 12:27:01;;;;;;;;;;;;;;;12.45;40.10;98240.19;4809056;29;19951;-66
2022/03/03 12:29:31;;;;;;;;;;;;;;;11.96;40.64;98234.13;4808031;29;19955;-66
2022/03/03 12:32:19;;;;;;;;;;;;;;;11.97;41.34;98224.47;4809180;29;19951;-66
2022/03/03 12:34:46;;;;;;;;;;;;;;;12.05;41.98;98224.03;4803040;29;19949;-66
2022/03/03 12:37:14;;;;;;;;;;;;;;;11.86;42.16;98222.53;4808800;29;19957;-66
2022/03/03 12:39:52;;;;;;;;;;;;;;;12.12;40.47;98218.41;4808791;29;19953;-66
2022/03/03 12:42:23;;;;;;;;;;;;;;;12.07;40.37;98212.41;4809019;29;20372;-66
2022/03/03 12:44:54;;;;;;;;;;;;;;;11.74;40.46;98208.19;4808732;29;19962;-66
2022/03/03 12:47:35;;;;;;;;;;;;;;;11.93;40.89;98204.91;4809440;29;19955;-66
2022/03/03 12:50:06;;;;;;;;;;;;;;;11.88;41.85;98200.50;4808771;29;19957;-66
2022/03/03 12:52:37;;;;;;;;;;;;;;;11.83;42.21;98203.72;4808682;29;19961;-66
2022/03/03 12:55:06;;;;;;;;;;;;;;;11.95;41.82;98185.69;4809376;29;19955;-66
2022/03/03 12:57:34;;;;;;;;;;;;;;;11.84;42.21;98190.53;4809238;29;19954;-66
2022/03/03 13:00:07;;;;;;;;;;;;;;;12.07;42.90;98179.59;4808177;29;19954;-66
2022/03/03 13:02:53;;;;;;;;;;;;;;;12.12;43.07;98179.16;4808849;29;20337;-66
2022/03/03 13:05:28;;;;;;;;;;;;;;;12.04;41.11;98163.59;4792983;29;19958;-66
2022/03/03 13:07:55;;;;;;;;;;;;;;;12.07;42.07;98159.97;4809309;29;19956;-66
2022/03/03 13:10:23;;;;;;;;;;;;;;;11.88;41.54;98157.69;4808345;29;20252;-66
2022/03/03 13:12:54;;;;;;;;;;;;;;;12.14;45.55;98153.50;4805689;29;20367;-66
2022/03/03 13:15:29;;;;;;;;;;;;;;;12.15;42.83;98149.50;4808417;29;19977;-66
2022/03/03 13:18:01;;;;;;;;;;;;;;;12.21;40.75;98145.84;4809740;29;19960;-66
2022/03/03 13:20:38;;;;;;;;;;;;;;;12.23;41.15;98142.63;4807459;29;20335;-66
2022/03/03 13:23:10;;;;;;;;;;;;;;;12.07;41.26;98137.56;4811145;29;19955;-66
2022/03/03 13:25:39;;;;;;;;;;;;;;;12.14;43.33;98139.50;4812324;29;20323;-66
2022/03/03 13:28:07;;;;;;;;;;;;;;;12.23;42.64;98126.59;4811962;29;19955;-66
2022/03/03 13:30:34;;;;;;;;;;;;;;;12.23;42.44;98120.19;4810866;29;20390;-66
2022/03/03 13:33:02;;;;;;;;;;;;;;;12.19;41.59;98113.81;4814205;29;19971;-66
2022/03/03 13:35:39;;;;;;;;;;;;;;;12.14;42.39;98119.88;4811058;29;20228;-66
2022/03/03 13:38:07;;;;;;;;;;;;;;;12.13;42.58;98119.06;4810443;29;19952;-66
2022/03/03 13:40:36;;;;;;;;;;;;;;;12.08;42.32;98111.09;4811046;29;20346;-66
2022/03/03 13:43:04;;;;;;;;;;;;;;;12.10;41.33;98102.28;4811497;29;19953;-66
2022/03/03 13:45:32;;;;;;;;;;;;;;;11.96;42.98;98091.19;4811745;29;19962;-66
2022/03/03 13:48:03;;;;;;;;;;;;;;;11.86;41.81;98095.66;4811276;29;19945;-66
2022/03/03 13:50:31;;;;;;;;;;;;;;;11.83;42.51;98086.06;4811090;29;19951;-66
2022/03/03 13:53:14;;;;;;;;;;;;;;;12.00;43.57;98080.75;4813517;29;19958;-66
2022/03/03 13:55:42;;;;;;;;;;;;;;;11.86;42.37;98076.03;4810909;29;19953;-66
2022/03/03 13:58:20;;;;;;;;;;;;;;;11.93;42.92;98072.41;4809864;29;19954;-65
2022/03/03 14:00:49;;;;;;;;;;;;;;;11.92;41.99;98062.41;4810056;29;19967;-66
2022/03/03 14:03:17;;;;;;;;;;;;;;;11.88;42.31;98065.25;4811587;29;19957;-66
2022/03/03 14:06:00;;;;;;;;;;;;;;;11.90;43.92;98062.00;4810587;29;19948;-66
2022/03/03 14:08:29;;;;;;;;;;;;;;;12.08;41.28;98059.88;4806839;29;19963;-66
2022/03/03 14:10:58;;;;;;;;;;;;;;;12.08;41.84;98057.84;4809461;29;20032;-66
2022/03/03 14:13:27;;;;;;;;;;;;;;;12.14;43.37;98055.41;4810288;29;19975;-66
2022/03/03 14:15:55;;;;;;;;;;;;;;;12.09;41.43;98058.66;4810586;29;19972;-66
2022/03/03 14:18:24;;;;;;;;;;;;;;;11.99;41.82;98060.34;4802800;29;19958;-66
2022/03/03 14:20:53;;;;;;;;;;;;;;;12.02;43.51;98055.91;4807586;29;19948;-66
2022/03/03 14:23:21;;;;;;;;;;;;;;;11.86;42.52;98051.63;4810458;29;19951;-66
2022/03/03 14:25:49;;;;;;;;;;;;;;;11.83;42.19;98051.66;4809229;29;19950;-66
2022/03/03 14:28:17;;;;;;;;;;;;;;;11.65;41.93;98051.75;4810401;29;20417;-66
2022/03/03 14:30:45;;;;;;;;;;;;;;;11.79;42.07;98036.88;4803259;29;19978;-66
2022/03/03 14:33:13;;;;;;;;;;;;;;;11.81;42.81;98035.25;4812456;29;19959;-66
2022/03/03 14:35:40;;;;;;;;;;;;;;;11.86;42.49;98040.41;4798451;29;19954;-66
2022/03/03 14:38:07;;;;;;;;;;;;;;;11.87;41.82;98027.22;4799589;29;19945;-66
2022/03/03 14:40:35;;;;;;;;;;;;;;;11.88;42.28;98021.19;4809922;29;19985;-67
2022/03/03 14:43:03;;;;;;;;;;;;;;;11.66;43.13;98027.38;4809984;29;19954;-66
2022/03/03 14:45:30;;;;;;;;;;;;;;;11.83;41.48;98020.84;4810685;29;19955;-65
2022/03/03 14:47:58;;;;;;;;;;;;;;;11.70;41.95;98017.75;4810152;29;19969;-66
2022/03/03 14:50:26;;;;;;;;;;;;;;;11.75;43.45;98010.91;4809206;29;19962;-66
2022/03/03 14:52:55;;;;;;;;;;;;;;;11.87;41.24;98013.22;4807088;29;19962;-66
2022/03/03 14:55:22;;;;;;;;;;;;;;;11.87;42.48;98007.59;4808543;29;19971;-66
2022/03/03 14:57:49;;;;;;;;;;;;;;;11.66;42.41;98002.94;4805897;29;20373;-66
2022/03/03 15:00:19;;;;;;;;;;;;;;;11.65;41.84;97997.75;4809511;29;19953;-66
2022/03/03 15:02:48;;;;;;;;;;;;;;;11.68;43.06;97994.97;4809262;29;20339;-66
2022/03/03 15:05:19;;;;;;;;;;;;;;;11.64;43.00;97987.78;4808851;29;19961;-66
2022/03/03 15:07:46;;;;;;;;;;;;;;;11.69;41.99;97988.13;4809805;29;20375;-66
2022/03/03 15:10:18;;;;;;;;;;;;;;;11.68;42.22;97980.97;4808953;29;19959;-66
2022/03/03 15:12:46;;;;;;;;;;;;;;;11.79;42.83;97983.66;4811256;29;19961;-66
2022/03/03 15:15:14;;;;;;;;;;;;;;;11.80;41.56;97977.66;4807823;29;19967;-66
2022/03/03 15:17:44;;;;;;;;;;;;;;;11.67;42.25;97970.13;4808428;29;19955;-66
2022/03/03 15:20:12;;;;;;;;;;;;;;;11.70;43.51;97972.13;4809033;29;19953;-66
2022/03/03 15:22:39;;;;;;;;;;;;;;;11.65;41.98;97970.53;4809578;29;19951;-66
2022/03/03 15:25:07;;;;;;;;;;;;;;;11.54;41.79;97963.44;4808473;29;19954;-66
2022/03/03 15:27:35;;;;;;;;;;;;;;;11.57;42.27;97968.19;4809508;29;20251;-66
2022/03/03 15:30:04;;;;;;;;;;;;;;;11.58;41.89;97969.81;4808468;29;19948;-66
2022/03/03 15:32:31;;;;;;;;;;;;;;;11.53;43.25;97965.44;4808943;29;19980;-66
2022/03/03 15:37:45;;;;;;;;;;;;;;;11.41;41.77;97967.94;4809899;29;19960;-66
2022/03/03 15:40:12;;;;;;;;;;;;;;;11.27;42.97;97968.03;4808821;29;19950;-66
2022/03/03 15:42:40;;;;;;;;;;;;;;;11.29;42.80;97968.44;4808795;29;19950;-66
2022/03/03 15:45:07;;;;;;;;;;;;;;;11.27;42.89;97970.84;4809227;29;19955;-66
2022/03/03 15:47:35;;;;;;;;;;;;;;;11.34;42.62;97968.00;4809834;29;19959;-66
2022/03/03 15:50:03;;;;;;;;;;;;;;;11.36;43.37;97971.16;4809602;29;20359;-66
2022/03/03 15:52:30;;;;;;;;;;;;;;;11.35;43.09;97961.97;4809856;29;19959;-66
2022/03/03 15:54:57;;;;;;;;;;;;;;;11.26;43.33;97963.66;4810009;29;20357;-66
2022/03/03 15:57:25;;;;;;;;;;;;;;;11.18;43.65;97954.50;4809564;29;19954;-66
2022/03/03 15:59:54;;;;;;;;;;;;;;;11.18;43.72;97960.91;4808724;29;19948;-66
2022/03/03 16:02:22;;;;;;;;;;;;;;;11.15;43.05;97958.13;4808825;29;19951;-66
2022/03/03 16:04:49;;;;;;;;;;;;;;;11.09;43.27;97954.16;4809445;29;19957;-66
2022/03/03 16:07:18;;;;;;;;;;;;;;;11.07;43.96;97959.38;4809274;29;19959;-66
2022/03/03 16:09:46;;;;;;;;;;;;;;;11.01;43.30;97956.22;4808374;29;19951;-66
2022/03/03 16:12:14;;;;;;;;;;;;;;;10.93;43.74;97954.66;4809364;29;19952;-66
2022/03/03 16:14:42;;;;;;;;;;;;;;;10.98;44.16;97953.44;4809266;29;19976;-66
2022/03/03 16:17:25;;;;;;;;;;;;;;;11.13;43.31;97955.72;4819844;29;19960;-66
2022/03/03 16:19:53;;;;;;;;;;;;;;;10.96;43.81;97959.44;4793938;29;19948;-66
2022/03/03 16:22:20;;;;;;;;;;;;;;;10.92;43.17;97958.66;4807952;29;19966;-66
2022/03/03 16:24:49;;;;;;;;;;;;;;;10.90;43.51;97966.69;4808896;29;19977;-66
2022/03/03 16:27:18;;;;;;;;;;;;;;;10.89;43.11;97962.28;4809364;29;19957;-66
2022/03/03 16:29:46;;;;;;;;;;;;;;;10.84;43.36;97957.09;4805812;29;19953;-66
2022/03/03 16:32:22;;;;;;;;;;;;;;;10.85;43.72;97969.09;4808512;29;19954;-66
2022/03/03 16:34:51;;;;;;;;;;;;;;;10.81;44.04;97962.75;4805672;29;20260;-66
2022/03/03 16:37:20;;;;;;;;;;;;;;;10.73;44.78;97967.56;4808706;29;19965;-66
2022/03/03 16:39:48;;;;;;;;;;;;;;;10.67;44.82;97962.78;4808145;29;19963;-66
2022/03/03 16:42:15;;;;;;;;;;;;;;;10.64;45.36;97964.38;4808805;29;19946;-66
2022/03/03 16:44:43;;;;;;;;;;;;;;;10.55;45.49;97973.22;4808379;29;19960;-66
2022/03/03 16:47:11;;;;;;;;;;;;;;;10.55;46.39;97962.06;4808339;29;20370;-66
2022/03/03 16:49:39;;;;;;;;;;;;;;;10.48;45.88;97955.69;4807026;29;19973;-66
2022/03/03 16:52:10;;;;;;;;;;;;;;;10.35;46.01;97960.91;4813166;29;19948;-66
2022/03/03 16:54:38;;;;;;;;;;;;;;;10.24;47.03;97962.16;4808522;29;19975;-66
2022/03/03 16:57:05;;;;;;;;;;;;;;;10.23;46.78;97957.75;4807987;29;19958;-66
2022/03/03 16:59:33;;;;;;;;;;;;;;;10.15;46.66;97956.97;4807230;29;19960;-66
2022/03/03 17:02:00;;;;;;;;;;;;;;;10.07;47.44;97966.56;4805916;29;19947;-66
2022/03/03 17:04:28;;;;;;;;;;;;;;;9.99;47.48;97966.97;4805982;29;19960;-66
2022/03/03 17:06:55;;;;;;;;;;;;;;;9.87;48.41;97966.22;4807440;29;19952;-66
2022/03/03 17:09:23;;;;;;;;;;;;;;;9.80;48.41;97963.44;4807541;29;19955;-65
2022/03/03 17:11:50;;;;;;;;;;;;;;;9.71;49.11;97963.03;4810712;29;19962;-65
2022/03/03 17:14:18;;;;;;;;;;;;;;;9.65;50.06;97966.63;4808202;29;19953;-65
2022/03/03 17:16:45;;;;;;;;;;;;;;;9.57;49.32;97968.63;4808866;29;20355;-66
2022/03/03 17:19:13;;;;;;;;;;;;;;;9.53;50.35;97962.25;4808259;29;19950;-66
2022/03/03 17:21:42;;;;;;;;;;;;;;;9.48;51.27;97970.22;4808681;29;19959;-66
2022/03/03 17:24:14;;;;;;;;;;;;;;;9.47;51.29;97972.19;4806633;29;19948;-66
2022/03/03 17:26:42;;;;;;;;;;;;;;;9.48;51.67;97973.00;4807805;29;19955;-66
2022/03/03 17:29:10;;;;;;;;;;;;;;;9.41;52.54;97970.22;4809572;29;19949;-65
2022/03/03 17:31:38;;;;;;;;;;;;;;;9.37;52.86;97977.78;4809088;29;20245;-66
2022/03/03 17:34:09;;;;;;;;;;;;;;;9.32;52.25;97978.19;4808388;29;19948;-66
2022/03/03 17:36:37;;;;;;;;;;;;;;;9.32;51.88;97970.59;4808416;29;20269;-66
2022/03/03 17:39:05;;;;;;;;;;;;;;;9.25;52.76;97979.78;4803880;29;19959;-66
2022/03/03 17:41:34;;;;;;;;;;;;;;;9.29;52.82;97968.63;4807006;29;19959;-66
2022/03/03 17:44:02;;;;;;;;;;;;;;;9.28;53.30;97967.00;4803248;29;19976;-66
2022/03/03 17:46:29;;;;;;;;;;;;;;;9.25;53.22;97976.19;4807327;29;19961;-66
2022/03/03 17:48:56;;;;;;;;;;;;;;;9.23;53.05;97978.56;4807776;29;19962;-66
2022/03/03 17:51:24;;;;;;;;;;;;;;;9.20;52.45;97977.38;4807028;29;19955;-66
2022/03/03 17:53:51;;;;;;;;;;;;;;;9.20;52.00;97973.78;4807444;29;19955;-66
2022/03/03 17:56:19;;;;;;;;;;;;;;;9.21;53.09;97969.81;4806866;29;19970;-66
2022/03/03 17:58:46;;;;;;;;;;;;;;;9.19;52.75;97967.38;4811372;29;19956;-66
2022/03/03 18:01:14;;;;;;;;;;;;;;;9.20;52.62;97966.22;4807045;29;20255;-66
2022/03/03 18:03:41;;;;;;;;;;;;;;;9.20;52.56;97965.41;4807256;29;19959;-66
2022/03/03 18:06:09;;;;;;;;;;;;;;;9.23;52.35;97959.84;4808631;29;19960;-66
2022/03/03 18:08:36;;;;;;;;;;;;;;;9.25;52.06;97957.44;4811175;29;19953;-66
2022/03/03 18:11:04;;;;;;;;;;;;;;;9.33;52.00;97957.44;4806523;29;19956;-66
2022/03/03 18:13:31;;;;;;;;;;;;;;;9.28;52.60;97964.22;4810679;29;19957;-66
2022/03/03 18:15:59;;;;;;;;;;;;;;;9.32;51.98;97956.66;4811231;29;19982;-66
2022/03/03 18:18:26;;;;;;;;;;;;;;;9.34;51.55;97964.63;4810535;29;19946;-66